Time;durP1;ratioP1;P1;durP2;ratioP2;P2;SDS_P1;SDS_P2;PMS_P1;PMS_P2;Temp;Humidity;BMP_temperature;BMP_pressure;BME280_temperature;BME280_humidity;BME280_pressure;Samples;Min_cycle;Max_cycle;Signal;HPM_P1;HPM_P2
2022/03/24 00:00:15;;;;;;;;;;;;;;;;;;5012961;28;19912;-57
2022/03/24 00:02:41;;;;;;;;;;;;;;;;;;5012765;28;19914;-56
2022/03/24 00:05:08;;;;;;;;;;;;;;;;;;5013167;28;19921;-57
2022/03/24 00:07:34;;;;;;;;;;;;;;;;;;5012913;28;19906;-55
2022/03/24 00:10:00;;;;;;;;;;;;;;;;;;5012945;28;19916;-57
2022/03/24 00:12:27;;;;;;;;;;;;;;;;;;5013007;28;19906;-57
2022/03/24 00:14:53;;;;;;;;;;;;;;;;;;5012860;28;19905;-57
2022/03/24 00:17:19;;;;;;;;;;;;;;;;;;5012900;28;19905;-57
2022/03/24 00:19:45;;;;;;;;;;;;;;;;;;5012827;28;19912;-57
2022/03/24 00:22:11;;;;;;;;;;;;;;;;;;5012840;28;19916;-56
2022/03/24 00:24:37;;;;;;;;;;;;;;;;;;5012362;28;19913;-58
2022/03/24 00:27:03;;;;;;;;;;;;;;;;;;5012483;28;19912;-58
2022/03/24 00:29:29;;;;;;;;;;;;;;;;;;5012877;28;19996;-57
2022/03/24 00:31:55;;;;;;;;;;;;;;;;;;5012820;28;20261;-57
2022/03/24 00:34:20;;;;;;;;;;;;;;;;;;5012730;28;19916;-57
2022/03/24 00:36:46;;;;;;;;;;;;;;;;;;5012699;28;19909;-57
2022/03/24 00:39:12;;;;;;;;;;;;;;;;;;5013787;28;19906;-58
2022/03/24 00:41:38;;;;;;;;;;;;;;;;;;5016969;28;20068;-58
2022/03/24 00:44:04;;;;;;;;;;;;;;;;;;5016622;28;19936;-57
2022/03/24 00:46:31;;;;;;;;;;;;;;;;;;5016610;28;19921;-57
2022/03/24 00:48:57;;;;;;;;;;;;;;;;;;5016835;28;19906;-58
2022/03/24 00:51:23;;;;;;;;;;;;;;;;;;5016636;28;19905;-58
2022/03/24 00:53:49;;;;;;;;;;;;;;;;;;5016397;28;19959;-58
2022/03/24 00:56:15;;;;;;;;;;;;;;;;;;5016451;28;19905;-59
2022/03/24 00:58:41;;;;;;;;;;;;;;;;;;5016383;28;19925;-58
2022/03/24 01:01:11;;;;;;;;;;;;;;;;;;5016314;28;20422;-57
2022/03/24 01:03:38;;;;;;;;;;;;;;;;;;5016063;28;19917;-58
2022/03/24 01:06:04;;;;;;;;;;;;;;;;;;5016466;28;19928;-57
2022/03/24 01:08:31;;;;;;;;;;;;;;;;;;5016360;28;19905;-57
2022/03/24 01:10:57;;;;;;;;;;;;;;;;;;5016357;28;19906;-57
2022/03/24 01:13:23;;;;;;;;;;;;;;;;;;5016065;28;19905;-58
2022/03/24 01:15:50;;;;;;;;;;;;;;;;;;5016019;28;20048;-57
2022/03/24 01:18:18;;;;;;;;;;;;;;;;;;5015963;28;19906;-56
2022/03/24 01:20:45;;;;;;;;;;;;;;;;;;5015938;28;19909;-58
2022/03/24 01:23:12;;;;;;;;;;;;;;;;;;5015715;28;20276;-57
2022/03/24 01:25:38;;;;;;;;;;;;;;;;;;5016224;28;19936;-57
2022/03/24 01:28:04;;;;;;;;;;;;;;;;;;5015884;28;19905;-58
2022/03/24 01:30:29;;;;;;;;;;;;;;;;;;5015776;28;19905;-57
2022/03/24 01:32:55;;;;;;;;;;;;;;;;;;5015765;28;19951;-57
2022/03/24 01:35:21;;;;;;;;;;;;;;;;;;5015678;28;19905;-57
2022/03/24 01:37:48;;;;;;;;;;;;;;;;;;5015596;28;19905;-57
2022/03/24 01:40:14;;;;;;;;;;;;;;;;;;5015544;28;19905;-58
2022/03/24 01:42:39;;;;;;;;;;;;;;;;;;5015560;28;19992;-58
2022/03/24 01:45:05;;;;;;;;;;;;;;;;;;5015510;28;20024;-58
2022/03/24 01:47:32;;;;;;;;;;;;;;;;;;5015455;28;19905;-57
2022/03/24 01:49:58;;;;;;;;;;;;;;;;;;5015183;28;20039;-57
2022/03/24 01:52:24;;;;;;;;;;;;;;;;;;5015389;28;19948;-57
2022/03/24 01:54:50;;;;;;;;;;;;;;;;;;5015676;28;19916;-57
2022/03/24 01:57:16;;;;;;;;;;;;;;;;;;5015365;28;20380;-57
2022/03/24 01:59:42;;;;;;;;;;;;;;;;;;5015219;28;19905;-57
2022/03/24 02:02:08;;;;;;;;;;;;;;;;;;5014954;28;19905;-57
2022/03/24 02:04:35;;;;;;;;;;;;;;;;;;5015143;28;20306;-57
2022/03/24 02:07:01;;;;;;;;;;;;;;;;;;5015134;28;19952;-57
2022/03/24 02:09:27;;;;;;;;;;;;;;;;;;5015071;28;19933;-56
2022/03/24 02:11:53;;;;;;;;;;;;;;;;;;5014996;28;19905;-56
2022/03/24 02:14:18;;;;;;;;;;;;;;;;;;5015012;28;19914;-57
2022/03/24 02:16:46;;;;;;;;;;;;;;;;;;5014887;28;19936;-57
2022/03/24 02:19:12;;;;;;;;;;;;;;;;;;5014852;28;19912;-56
2022/03/24 02:21:38;;;;;;;;;;;;;;;;;;5014895;28;19905;-58
2022/03/24 02:24:04;;;;;;;;;;;;;;;;;;5014689;28;19913;-57
2022/03/24 02:26:30;;;;;;;;;;;;;;;;;;5015091;28;19909;-57
2022/03/24 02:28:56;;;;;;;;;;;;;;;;;;5014800;28;19996;-57
2022/03/24 02:31:22;;;;;;;;;;;;;;;;;;5014853;28;19951;-57
2022/03/24 02:34:37;;;;;;;;;;;;;;;;;;5014824;28;20319;-57
2022/03/24 02:36:34;;;;;;;;;;;;;;;;;;5014369;28;19913;-57
2022/03/24 02:39:00;;;;;;;;;;;;;;;;;;5014648;28;19909;-58
2022/03/24 02:41:26;;;;;;;;;;;;;;;;;;5014580;28;20047;-57
2022/03/24 02:43:52;;;;;;;;;;;;;;;;;;5014305;28;19914;-58
2022/03/24 02:46:19;;;;;;;;;;;;;;;;;;5014414;28;20342;-57
2022/03/24 02:48:45;;;;;;;;;;;;;;;;;;5014331;28;19906;-57
2022/03/24 02:51:10;;;;;;;;;;;;;;;;;;5014270;28;19963;-58
2022/03/24 02:53:36;;;;;;;;;;;;;;;;;;5014147;28;19905;-57
2022/03/24 02:56:02;;;;;;;;;;;;;;;;;;5014319;28;19905;-58
2022/03/24 02:58:28;;;;;;;;;;;;;;;;;;5014191;28;19992;-57
2022/03/24 03:00:54;;;;;;;;;;;;;;;;;;5014115;28;19909;-58
2022/03/24 03:03:23;;;;;;;;;;;;;;;;;;5013092;28;20414;-57
2022/03/24 03:05:49;;;;;;;;;;;;;;;;;;5014260;28;20352;-57
2022/03/24 03:08:15;;;;;;;;;;;;;;;;;;5013944;28;19944;-57
2022/03/24 03:10:41;;;;;;;;;;;;;;;;;;5013938;28;19988;-57
2022/03/24 03:13:08;;;;;;;;;;;;;;;;;;5014162;28;19940;-57
2022/03/24 03:15:35;;;;;;;;;;;;;;;;;;5013734;28;19906;-58
2022/03/24 03:18:02;;;;;;;;;;;;;;;;;;5013779;28;19909;-57
2022/03/24 03:20:28;;;;;;;;;;;;;;;;;;5013694;28;19906;-58
2022/03/24 03:22:54;;;;;;;;;;;;;;;;;;5013642;28;19910;-58
2022/03/24 03:25:21;;;;;;;;;;;;;;;;;;5013719;28;20359;-57
2022/03/24 03:27:47;;;;;;;;;;;;;;;;;;5013628;28;19909;-57
2022/03/24 03:30:14;;;;;;;;;;;;;;;;;;5013655;28;20022;-57
2022/03/24 03:32:41;;;;;;;;;;;;;;;;;;5013623;28;20054;-57
2022/03/24 03:35:10;;;;;;;;;;;;;;;;;;5013610;28;19991;-58
2022/03/24 03:37:37;;;;;;;;;;;;;;;;;;5013403;28;19905;-56
2022/03/24 03:40:03;;;;;;;;;;;;;;;;;;5013375;28;20360;-57
2022/03/24 03:42:29;;;;;;;;;;;;;;;;;;5013394;28;19906;-58
2022/03/24 03:44:55;;;;;;;;;;;;;;;;;;5013270;28;20328;-57
2022/03/24 03:47:20;;;;;;;;;;;;;;;;;;5013234;28;19917;-58
2022/03/24 03:49:46;;;;;;;;;;;;;;;;;;5013237;28;19953;-57
2022/03/24 03:52:12;;;;;;;;;;;;;;;;;;5013357;28;20367;-61
2022/03/24 03:54:38;;;;;;;;;;;;;;;;;;5013519;28;19944;-57
2022/03/24 03:57:04;;;;;;;;;;;;;;;;;;5013199;28;20395;-57
2022/03/24 03:59:30;;;;;;;;;;;;;;;;;;5013133;28;19905;-58
2022/03/24 04:01:57;;;;;;;;;;;;;;;;;;5012906;28;19906;-56
2022/03/24 04:04:23;;;;;;;;;;;;;;;;;;5013036;28;19913;-57
2022/03/24 04:06:49;;;;;;;;;;;;;;;;;;5013093;28;20330;-57
2022/03/24 04:09:15;;;;;;;;;;;;;;;;;;5013186;28;19906;-57
2022/03/24 04:11:42;;;;;;;;;;;;;;;;;;5013198;28;20012;-48
2022/03/24 04:14:08;;;;;;;;;;;;;;;;;;5012990;28;20359;-48
2022/03/24 04:16:34;;;;;;;;;;;;;;;;;;5013227;28;19910;-47
2022/03/24 04:19:00;;;;;;;;;;;;;;;;;;5012863;28;19910;-47
2022/03/24 04:21:25;;;;;;;;;;;;;;;;;;5012789;28;19905;-47
2022/03/24 04:23:51;;;;;;;;;;;;;;;;;;5012773;28;19955;-47
2022/03/24 04:26:17;;;;;;;;;;;;;;;;;;5013092;28;19920;-47
2022/03/24 04:28:43;;;;;;;;;;;;;;;;;;5012869;28;20005;-47
2022/03/24 04:31:09;;;;;;;;;;;;;;;;;;5013155;28;19912;-48
2022/03/24 04:33:35;;;;;;;;;;;;;;;;;;5012804;28;19905;-47
2022/03/24 04:36:01;;;;;;;;;;;;;;;;;;5012983;28;19955;-47
2022/03/24 04:38:27;;;;;;;;;;;;;;;;;;5012785;28;19905;-47
2022/03/24 04:40:53;;;;;;;;;;;;;;;;;;5012967;28;20328;-48
2022/03/24 04:43:19;;;;;;;;;;;;;;;;;;5012632;28;20269;-47
2022/03/24 04:45:45;;;;;;;;;;;;;;;;;;5012795;28;19913;-47
2022/03/24 04:48:11;;;;;;;;;;;;;;;;;;5012780;28;19972;-47
2022/03/24 04:50:37;;;;;;;;;;;;;;;;;;5012616;28;19948;-48
2022/03/24 04:53:03;;;;;;;;;;;;;;;;;;5012812;28;19905;-47
2022/03/24 04:55:29;;;;;;;;;;;;;;;;;;5012597;28;20447;-48
2022/03/24 04:57:55;;;;;;;;;;;;;;;;;;5012428;28;19905;-51
2022/03/24 05:00:20;;;;;;;;;;;;;;;;;;5012536;28;19940;-50
2022/03/24 05:02:47;;;;;;;;;;;;;;;;;;5012306;28;19936;-50
2022/03/24 05:05:13;;;;;;;;;;;;;;;;;;5012694;28;19914;-51
2022/03/24 05:07:40;;;;;;;;;;;;;;;;;;5012549;28;19951;-48
2022/03/24 05:10:06;;;;;;;;;;;;;;;;;;5012403;28;19910;-50
2022/03/24 05:12:31;;;;;;;;;;;;;;;;;;5012477;28;20407;-49
2022/03/24 05:14:57;;;;;;;;;;;;;;;;;;5012339;28;20001;-48
2022/03/24 05:17:24;;;;;;;;;;;;;;;;;;5012367;28;19924;-47
2022/03/24 05:19:50;;;;;;;;;;;;;;;;;;5012277;28;19913;-47
2022/03/24 05:22:16;;;;;;;;;;;;;;;;;;5012378;28;19906;-47
2022/03/24 05:24:42;;;;;;;;;;;;;;;;;;5012511;28;20000;-48
2022/03/24 05:27:08;;;;;;;;;;;;;;;;;;5015860;28;19906;-48
2022/03/24 05:29:34;;;;;;;;;;;;;;;;;;5015856;28;19945;-47
2022/03/24 05:32:00;;;;;;;;;;;;;;;;;;5015608;28;19905;-48
2022/03/24 05:34:26;;;;;;;;;;;;;;;;;;5016006;28;19936;-47
2022/03/24 05:36:53;;;;;;;;;;;;;;;;;;5015923;28;19905;-48
2022/03/24 05:39:18;;;;;;;;;;;;;;;;;;5015640;28;19912;-48
2022/03/24 05:41:44;;;;;;;;;;;;;;;;;;5015581;28;19905;-46
2022/03/24 05:44:10;;;;;;;;;;;;;;;;;;5015549;28;19917;-47
2022/03/24 05:46:36;;;;;;;;;;;;;;;;;;5015549;28;19999;-47
2022/03/24 05:49:02;;;;;;;;;;;;;;;;;;5015435;28;19975;-48
2022/03/24 05:51:28;;;;;;;;;;;;;;;;;;5015500;28;20286;-48
2022/03/24 05:53:54;;;;;;;;;;;;;;;;;;5015408;28;19909;-46
2022/03/24 05:56:19;;;;;;;;;;;;;;;;;;5015412;28;20379;-47
2022/03/24 05:58:45;;;;;;;;;;;;;;;;;;5015352;28;20002;-46
2022/03/24 06:01:11;;;;;;;;;;;;;;;;;;5015353;28;19905;-47
2022/03/24 06:03:37;;;;;;;;;;;;;;;;;;5015004;28;19918;-47
2022/03/24 06:06:03;;;;;;;;;;;;;;;;;;5015479;28;19906;-46
2022/03/24 06:08:30;;;;;;;;;;;;;;;;;;5015198;28;19906;-47
2022/03/24 06:10:57;;;;;;;;;;;;;;;;;;4997442;28;20376;-48
2022/03/24 06:13:22;;;;;;;;;;;;;;;;;;5014917;28;19959;-47
2022/03/24 06:15:50;;;;;;;;;;;;;;;;;;5014991;28;19905;-47
2022/03/24 06:18:16;;;;;;;;;;;;;;;;;;5015219;28;20268;-46
2022/03/24 06:20:43;;;;;;;;;;;;;;;;;;5014995;28;19932;-57
2022/03/24 06:23:09;;;;;;;;;;;;;;;;;;5014712;28;19905;-57
2022/03/24 06:25:37;;;;;;;;;;;;;;;;;;5014860;28;19912;-56
2022/03/24 06:28:03;;;;;;;;;;;;;;;;;;5014763;28;19917;-57
2022/03/24 06:30:29;;;;;;;;;;;;;;;;;;5014688;28;19963;-57
2022/03/24 06:32:56;;;;;;;;;;;;;;;;;;5014856;28;20260;-57
2022/03/24 06:35:22;;;;;;;;;;;;;;;;;;5014508;28;19936;-56
2022/03/24 06:37:48;;;;;;;;;;;;;;;;;;5013728;28;19972;-56
2022/03/24 06:40:14;;;;;;;;;;;;;;;;;;5014618;28;20040;-57
2022/03/24 06:42:40;;;;;;;;;;;;;;;;;;5014621;28;20163;-57
2022/03/24 06:45:06;;;;;;;;;;;;;;;;;;5014425;28;20384;-57
2022/03/24 06:47:32;;;;;;;;;;;;;;;;;;5014608;28;20364;-58
2022/03/24 06:49:58;;;;;;;;;;;;;;;;;;5014574;28;19944;-58
2022/03/24 06:52:24;;;;;;;;;;;;;;;;;;5014138;28;20015;-58
2022/03/24 06:54:50;;;;;;;;;;;;;;;;;;5014242;28;19964;-59
2022/03/24 06:57:16;;;;;;;;;;;;;;;;;;5014032;28;19905;-60
2022/03/24 06:59:42;;;;;;;;;;;;;;;;;;5014095;28;20407;-60
2022/03/24 07:02:08;;;;;;;;;;;;;;;;;;5013973;28;19905;-60
2022/03/24 07:04:33;;;;;;;;;;;;;;;;;;5014239;28;20290;-60
2022/03/24 07:06:59;;;;;;;;;;;;;;;;;;5014081;28;20000;-60
2022/03/24 07:09:25;;;;;;;;;;;;;;;;;;5014084;28;19906;-60
2022/03/24 07:11:51;;;;;;;;;;;;;;;;;;5014053;28;19959;-59
2022/03/24 07:14:17;;;;;;;;;;;;;;;;;;5014025;28;19959;-59
2022/03/24 07:16:43;;;;;;;;;;;;;;;;;;5013971;28;20379;-59
2022/03/24 07:19:09;;;;;;;;;;;;;;;;;;5013883;28;20414;-59
2022/03/24 07:21:35;;;;;;;;;;;;;;;;;;5013718;28;19905;-59
2022/03/24 07:24:01;;;;;;;;;;;;;;;;;;5013481;28;19972;-59
2022/03/24 07:26:27;;;;;;;;;;;;;;;;;;5013974;28;19912;-58
2022/03/24 07:28:53;;;;;;;;;;;;;;;;;;5013762;28;19912;-59
2022/03/24 07:31:19;;;;;;;;;;;;;;;;;;5013926;28;19905;-59
2022/03/24 07:33:45;;;;;;;;;;;;;;;;;;5013559;28;19996;-59
2022/03/24 07:36:10;;;;;;;;;;;;;;;;;;5013539;28;19909;-59
2022/03/24 07:38:36;;;;;;;;;;;;;;;;;;5013561;28;19975;-59
2022/03/24 07:41:02;;;;;;;;;;;;;;;;;;5013743;28;19906;-59
2022/03/24 07:43:28;;;;;;;;;;;;;;;;;;5013568;28;19920;-59
2022/03/24 07:45:54;;;;;;;;;;;;;;;;;;5013419;28;19909;-59
2022/03/24 07:48:25;;;;;;;;;;;;;;;;;;5013059;28;20115;-59
2022/03/24 07:50:51;;;;;;;;;;;;;;;;;;5013336;28;19916;-59
2022/03/24 07:53:17;;;;;;;;;;;;;;;;;;5013763;28;19991;-60
2022/03/24 07:55:42;;;;;;;;;;;;;;;;;;5013324;28;19905;-59
2022/03/24 07:58:09;;;;;;;;;;;;;;;;;;5013398;28;20419;-59
2022/03/24 08:00:34;;;;;;;;;;;;;;;;;;5013225;28;20359;-59
2022/03/24 08:03:00;;;;;;;;;;;;;;;;;;5013219;28;19958;-59
2022/03/24 08:05:26;;;;;;;;;;;;;;;;;;5013463;28;20315;-59
2022/03/24 08:07:56;;;;;;;;;;;;;;;;;;5013164;28;19912;-59
2022/03/24 08:10:22;;;;;;;;;;;;;;;;;;5013150;28;19905;-59
2022/03/24 08:12:48;;;;;;;;;;;;;;;;;;5013153;28;19905;-58
2022/03/24 08:15:14;;;;;;;;;;;;;;;;;;5013082;28;19971;-58
2022/03/24 08:17:40;;;;;;;;;;;;;;;;;;5013029;28;19906;-58
2022/03/24 08:20:06;;;;;;;;;;;;;;;;;;5013032;28;20341;-58
2022/03/24 08:22:32;;;;;;;;;;;;;;;;;;5013229;28;19947;-58
2022/03/24 08:24:57;;;;;;;;;;;;;;;;;;5012898;28;19914;-58
2022/03/24 08:27:23;;;;;;;;;;;;;;;;;;5012987;28;19912;-58
2022/03/24 08:29:49;;;;;;;;;;;;;;;;;;5012985;28;20431;-47
2022/03/24 08:32:15;;;;;;;;;;;;;;;;;;5012835;28;19999;-47
2022/03/24 08:34:41;;;;;;;;;;;;;;;;;;5012772;28;19910;-46
2022/03/24 08:37:07;;;;;;;;;;;;;;;;;;5012739;28;19905;-47
2022/03/24 08:39:33;;;;;;;;;;;;;;;;;;5012797;28;20007;-47
2022/03/24 08:41:58;;;;;;;;;;;;;;;;;;5012793;28;19906;-47
2022/03/24 08:44:24;;;;;;;;;;;;;;;;;;5013007;28;19913;-47
2022/03/24 08:46:50;;;;;;;;;;;;;;;;;;5013018;28;20284;-48
2022/03/24 08:49:16;;;;;;;;;;;;;;;;;;5012783;28;19992;-60
2022/03/24 08:51:42;;;;;;;;;;;;;;;;;;5012710;28;19945;-60
2022/03/24 08:54:08;;;;;;;;;;;;;;;;;;5012671;28;19905;-59
2022/03/24 08:56:34;;;;;;;;;;;;;;;;;;5012611;28;19905;-60
2022/03/24 08:59:00;;;;;;;;;;;;;;;;;;5012563;28;20006;-60
2022/03/24 09:01:25;;;;;;;;;;;;;;;;;;5015595;28;19905;-60
2022/03/24 09:03:52;;;;;;;;;;;;;;;;;;5016064;28;19917;-59
2022/03/24 09:06:19;;;;;;;;;;;;;;;;;;5016443;28;19916;-60
2022/03/24 09:08:45;;;;;;;;;;;;;;;;;;5016372;28;20328;-60
2022/03/24 09:11:11;;;;;;;;;;;;;;;;;;5016238;28;19937;-59
2022/03/24 09:13:37;;;;;;;;;;;;;;;;;;5016253;28;19905;-59
2022/03/24 09:16:02;;;;;;;;;;;;;;;;;;5016405;28;20436;-59
2022/03/24 09:18:28;;;;;;;;;;;;;;;;;;5016196;28;19905;-59
2022/03/24 09:20:54;;;;;;;;;;;;;;;;;;5016490;28;19956;-59
2022/03/24 09:23:22;;;;;;;;;;;;;;;;;;5016162;28;19909;-59
2022/03/24 09:25:48;;;;;;;;;;;;;;;;;;5016131;28;19970;-59
2022/03/24 09:28:14;;;;;;;;;;;;;;;;;;5016242;28;20001;-60
2022/03/24 09:30:41;;;;;;;;;;;;;;;;;;5016310;28;20330;-59
2022/03/24 09:33:08;;;;;;;;;;;;;;;;;;5015978;28;19906;-59
2022/03/24 09:35:34;;;;;;;;;;;;;;;;;;5016218;28;19905;-60
2022/03/24 09:38:00;;;;;;;;;;;;;;;;;;5016104;28;19910;-59
2022/03/24 09:40:25;;;;;;;;;;;;;;;;;;5015815;28;19958;-60
2022/03/24 09:42:51;;;;;;;;;;;;;;;;;;5015913;28;19905;-59
2022/03/24 09:45:17;;;;;;;;;;;;;;;;;;5015749;28;19924;-60
2022/03/24 09:47:43;;;;;;;;;;;;;;;;;;5015870;28;19905;-59
2022/03/24 09:50:09;;;;;;;;;;;;;;;;;;5015609;28;20025;-59
2022/03/24 09:52:35;;;;;;;;;;;;;;;;;;5015601;28;19909;-59
2022/03/24 09:55:01;;;;;;;;;;;;;;;;;;5015527;28;20206;-59
2022/03/24 09:57:27;;;;;;;;;;;;;;;;;;5015501;28;19906;-59
2022/03/24 09:59:53;;;;;;;;;;;;;;;;;;5015694;28;19916;-59
2022/03/24 10:02:20;;;;;;;;;;;;;;;;;;5015208;28;19909;-59
2022/03/24 10:04:46;;;;;;;;;;;;;;;;;;5015280;28;20383;-59
2022/03/24 10:07:12;;;;;;;;;;;;;;;;;;5015209;28;19912;-60
2022/03/24 10:09:38;;;;;;;;;;;;;;;;;;5015312;28;19952;-59
2022/03/24 10:12:03;;;;;;;;;;;;;;;;;;5015077;28;20292;-60
2022/03/24 10:14:29;;;;;;;;;;;;;;;;;;5015162;28;19913;-59
2022/03/24 10:16:55;;;;;;;;;;;;;;;;;;5015176;28;19913;-59
2022/03/24 10:19:23;;;;;;;;;;;;;;;;;;5015153;28;19906;-59
2022/03/24 10:21:49;;;;;;;;;;;;;;;;;;5015009;28;20003;-59
2022/03/24 10:24:15;;;;;;;;;;;;;;;;;;5014895;28;19914;-60
2022/03/24 10:26:41;;;;;;;;;;;;;;;;;;5014915;28;19955;-60
2022/03/24 10:29:07;;;;;;;;;;;;;;;;;;5014862;28;19905;-60
2022/03/24 10:31:34;;;;;;;;;;;;;;;;;;5014773;28;20368;-60
2022/03/24 10:34:00;;;;;;;;;;;;;;;;;;5014776;28;20044;-60
2022/03/24 10:36:26;;;;;;;;;;;;;;;;;;5014679;28;19953;-60
2022/03/24 10:38:52;;;;;;;;;;;;;;;;;;5014780;28;19905;-60
2022/03/24 10:41:18;;;;;;;;;;;;;;;;;;5014868;28;19905;-60
2022/03/24 10:43:44;;;;;;;;;;;;;;;;;;5014549;28;19920;-60
2022/03/24 10:46:10;;;;;;;;;;;;;;;;;;5014521;28;19913;-60
2022/03/24 10:48:36;;;;;;;;;;;;;;;;;;5014810;28;20253;-60
2022/03/24 10:51:02;;;;;;;;;;;;;;;;;;5014498;28;19913;-61
2022/03/24 10:53:28;;;;;;;;;;;;;;;;;;5014434;28;20028;-60
2022/03/24 10:55:55;;;;;;;;;;;;;;;;;;5014453;28;20295;-60
2022/03/24 10:58:21;;;;;;;;;;;;;;;;;;5014299;28;20012;-60
2022/03/24 11:00:47;;;;;;;;;;;;;;;;;;5014304;28;20007;-60
2022/03/24 11:03:12;;;;;;;;;;;;;;;;;;5013916;28;19921;-60
2022/03/24 11:05:38;;;;;;;;;;;;;;;;;;5014198;28;20451;-60
2022/03/24 11:08:04;;;;;;;;;;;;;;;;;;5014131;28;19906;-60
2022/03/24 11:10:33;;;;;;;;;;;;;;;;;;5014069;28;19910;-60
2022/03/24 11:12:59;;;;;;;;;;;;;;;;;;5014294;28;19912;-60
2022/03/24 11:15:25;;;;;;;;;;;;;;;;;;5014033;28;20343;-47
2022/03/24 11:17:51;;;;;;;;;;;;;;;;;;5013942;28;19956;-48
2022/03/24 11:20:17;;;;;;;;;;;;;;;;;;5013913;28;19959;-49
2022/03/24 11:22:42;;;;;;;;;;;;;;;;;;5013323;28;19905;-47
2022/03/24 11:25:09;;;;;;;;;;;;;;;;;;5013815;28;20356;-48
2022/03/24 11:27:35;;;;;;;;;;;;;;;;;;5013811;28;19906;-48
2022/03/24 11:30:01;;;;;;;;;;;;;;;;;;5014037;28;19960;-48
2022/03/24 11:32:26;;;;;;;;;;;;;;;;;;5013757;28;19959;-48
2022/03/24 11:34:52;;;;;;;;;;;;;;;;;;5013794;28;19905;-47
2022/03/24 11:37:18;;;;;;;;;;;;;;;;;;5013710;28;20390;-48
2022/03/24 11:39:44;;;;;;;;;;;;;;;;;;5013582;28;19906;-47
2022/03/24 11:42:10;;;;;;;;;;;;;;;;;;5013651;28;19912;-48
2022/03/24 11:44:36;;;;;;;;;;;;;;;;;;5013437;28;19914;-49
2022/03/24 11:47:02;;;;;;;;;;;;;;;;;;5013432;28;19910;-48
2022/03/24 11:49:28;;;;;;;;;;;;;;;;;;5013524;28;19905;-48
2022/03/24 11:51:53;;;;;;;;;;;;;;;;;;5013482;28;19909;-48
2022/03/24 11:54:19;;;;;;;;;;;;;;;;;;5013338;28;19905;-49
2022/03/24 11:56:45;;;;;;;;;;;;;;;;;;5013388;28;20057;-48
2022/03/24 11:59:11;;;;;;;;;;;;;;;;;;5013256;28;19923;-47
2022/03/24 12:01:37;;;;;;;;;;;;;;;;;;5013140;28;20276;-47
2022/03/24 12:04:03;;;;;;;;;;;;;;;;;;5013033;28;19925;-49
2022/03/24 12:06:29;;;;;;;;;;;;;;;;;;5013098;28;19909;-48
2022/03/24 12:08:55;;;;;;;;;;;;;;;;;;5013218;28;20430;-48
2022/03/24 12:11:21;;;;;;;;;;;;;;;;;;5013088;28;19942;-47
2022/03/24 12:13:47;;;;;;;;;;;;;;;;;;5013062;28;19932;-48
2022/03/24 12:16:13;;;;;;;;;;;;;;;;;;5013334;28;19937;-48
2022/03/24 12:18:39;;;;;;;;;;;;;;;;;;5013057;28;19975;-48
2022/03/24 12:21:05;;;;;;;;;;;;;;;;;;5013081;28;19932;-49
2022/03/24 12:23:30;;;;;;;;;;;;;;;;;;5012932;28;19952;-47
2022/03/24 12:25:56;;;;;;;;;;;;;;;;;;5012812;28;19905;-47
2022/03/24 12:28:22;;;;;;;;;;;;;;;;;;5012990;28;19905;-47
2022/03/24 12:30:49;;;;;;;;;;;;;;;;;;5012676;28;20055;-48
2022/03/24 12:33:15;;;;;;;;;;;;;;;;;;5012893;28;19996;-48
2022/03/24 12:35:40;;;;;;;;;;;;;;;;;;5014911;28;19960;-49
2022/03/24 12:38:06;;;;;;;;;;;;;;;;;;5016884;28;20364;-49
2022/03/24 12:40:32;;;;;;;;;;;;;;;;;;4999135;28;19913;-47
2022/03/24 12:42:58;;;;;;;;;;;;;;;;;;5017368;28;19905;-47
2022/03/24 12:45:27;;;;;;;;;;;;;;;;;;5016986;28;20356;-49
2022/03/24 12:47:53;;;;;;;;;;;;;;;;;;5016627;28;19912;-47
2022/03/24 12:50:19;;;;;;;;;;;;;;;;;;5016673;28;19988;-47
2022/03/24 12:52:45;;;;;;;;;;;;;;;;;;5016677;28;19906;-48
2022/03/24 12:55:11;;;;;;;;;;;;;;;;;;5016649;28;20391;-49
2022/03/24 12:57:36;;;;;;;;;;;;;;;;;;5016861;28;19953;-49
2022/03/24 13:00:02;;;;;;;;;;;;;;;;;;5016709;28;19905;-48
2022/03/24 13:02:28;;;;;;;;;;;;;;;;;;5016501;28;20253;-52
2022/03/24 13:04:54;;;;;;;;;;;;;;;;;;5016665;28;19917;-52
2022/03/24 13:07:21;;;;;;;;;;;;;;;;;;5016625;28;20438;-51
2022/03/24 13:09:46;;;;;;;;;;;;;;;;;;5016335;28;19905;-52
2022/03/24 13:12:12;;;;;;;;;;;;;;;;;;5016449;28;20004;-52
2022/03/24 13:14:38;;;;;;;;;;;;;;;;;;5016252;28;19906;-51
2022/03/24 13:17:05;;;;;;;;;;;;;;;;;;5016519;28;19912;-49
2022/03/24 13:19:31;;;;;;;;;;;;;;;;;;5016490;28;19912;-53
2022/03/24 13:21:57;;;;;;;;;;;;;;;;;;5016407;28;19916;-49
2022/03/24 13:24:25;;;;;;;;;;;;;;;;;;5016155;28;19914;-50
2022/03/24 13:26:50;;;;;;;;;;;;;;;;;;5016053;28;19910;-49
2022/03/24 13:29:16;;;;;;;;;;;;;;;;;;5016074;28;19913;-52
2022/03/24 13:31:42;;;;;;;;;;;;;;;;;;5016005;28;20394;-49
2022/03/24 13:34:08;;;;;;;;;;;;;;;;;;5015990;28;19905;-48
2022/03/24 13:36:34;;;;;;;;;;;;;;;;;;5015978;28;19940;-48
2022/03/24 13:39:00;;;;;;;;;;;;;;;;;;5015915;28;19905;-48
2022/03/24 13:41:27;;;;;;;;;;;;;;;;;;5015918;28;19905;-49
2022/03/24 13:43:55;;;;;;;;;;;;;;;;;;5015970;28;19914;-47
2022/03/24 13:46:21;;;;;;;;;;;;;;;;;;5015240;28;19909;-48
2022/03/24 13:48:47;;;;;;;;;;;;;;;;;;5015615;28;19905;-47
2022/03/24 13:51:13;;;;;;;;;;;;;;;;;;5015578;28;20004;-48
2022/03/24 13:53:39;;;;;;;;;;;;;;;;;;5015636;28;20307;-48
2022/03/24 13:56:06;;;;;;;;;;;;;;;;;;5015540;28;20256;-48
2022/03/24 13:58:31;;;;;;;;;;;;;;;;;;5015737;28;19905;-49
2022/03/24 14:00:57;;;;;;;;;;;;;;;;;;5015552;28;19906;-48
2022/03/24 14:03:23;;;;;;;;;;;;;;;;;;5015112;28;20187;-47
2022/03/24 14:05:49;;;;;;;;;;;;;;;;;;5015275;28;20368;-47
2022/03/24 14:08:16;;;;;;;;;;;;;;;;;;5015216;28;19905;-47
2022/03/24 14:10:42;;;;;;;;;;;;;;;;;;5015454;28;19905;-48
2022/03/24 14:13:08;;;;;;;;;;;;;;;;;;5015262;28;19910;-46
2022/03/24 14:15:34;;;;;;;;;;;;;;;;;;5014951;28;20372;-48
2022/03/24 14:18:00;;;;;;;;;;;;;;;;;;5014821;28;19959;-48
2022/03/24 14:20:26;;;;;;;;;;;;;;;;;;5014946;28;20332;-47
2022/03/24 14:22:53;;;;;;;;;;;;;;;;;;5014711;28;19952;-48
2022/03/24 14:25:19;;;;;;;;;;;;;;;;;;5014410;28;19913;-48
2022/03/24 14:27:45;;;;;;;;;;;;;;;;;;5014723;28;20427;-48
2022/03/24 14:30:15;;;;;;;;;;;;;;;;;;5014329;28;19965;-49
2022/03/24 14:32:45;;;;;;;;;;;;;;;;;;5014356;28;20369;-48
2022/03/24 14:35:11;;;;;;;;;;;;;;;;;;5014289;28;19910;-48
2022/03/24 14:37:37;;;;;;;;;;;;;;;;;;5014872;28;19912;-48
2022/03/24 14:40:03;;;;;;;;;;;;;;;;;;5014457;28;19912;-48
2022/03/24 14:42:28;;;;;;;;;;;;;;;;;;5014234;28;19952;-47
2022/03/24 14:44:54;;;;;;;;;;;;;;;;;;5014281;28;19913;-48
2022/03/24 14:47:20;;;;;;;;;;;;;;;;;;5014300;28;20354;-48
2022/03/24 14:49:46;;;;;;;;;;;;;;;;;;5014226;28;19905;-48
2022/03/24 14:52:12;;;;;;;;;;;;;;;;;;5014148;28;19912;-48
2022/03/24 14:54:38;;;;;;;;;;;;;;;;;;5014171;28;19909;-48
2022/03/24 14:57:04;;;;;;;;;;;;;;;;;;5013710;28;19995;-49
2022/03/24 14:59:30;;;;;;;;;;;;;;;;;;5013665;28;20375;-48
2022/03/24 15:01:56;;;;;;;;;;;;;;;;;;5013969;28;19909;-49
2022/03/24 15:04:22;;;;;;;;;;;;;;;;;;5013712;28;20419;-47
2022/03/24 15:06:48;;;;;;;;;;;;;;;;;;5014043;28;19996;-48
2022/03/24 15:09:14;;;;;;;;;;;;;;;;;;5013923;28;19997;-47
2022/03/24 15:11:40;;;;;;;;;;;;;;;;;;5013971;28;19912;-48
2022/03/24 15:16:51;;;;;;;;;;;;;;;;;;5013887;28;19968;-48
2022/03/24 15:19:17;;;;;;;;;;;;;;;;;;5013761;28;19913;-48
2022/03/24 15:21:43;;;;;;;;;;;;;;;;;;5013842;28;20016;-49
2022/03/24 15:24:08;;;;;;;;;;;;;;;;;;5013785;28;19917;-48
2022/03/24 15:26:34;;;;;;;;;;;;;;;;;;5013887;28;19945;-49
2022/03/24 15:29:01;;;;;;;;;;;;;;;;;;5013705;28;19910;-49
2022/03/24 15:31:27;;;;;;;;;;;;;;;;;;5013579;28;19909;-47
2022/03/24 15:33:53;;;;;;;;;;;;;;;;;;5014043;28;19905;-48
2022/03/24 15:36:21;;;;;;;;;;;;;;;;;;5013669;28;19906;-47
2022/03/24 15:38:47;;;;;;;;;;;;;;;;;;5013864;28;19913;-48
2022/03/24 15:41:13;;;;;;;;;;;;;;;;;;5013848;28;19906;-48
2022/03/24 15:43:39;;;;;;;;;;;;;;;;;;5013278;28;19936;-47
2022/03/24 15:46:06;;;;;;;;;;;;;;;;;;5013294;28;20032;-48
2022/03/24 15:48:32;;;;;;;;;;;;;;;;;;5013465;28;19925;-48
2022/03/24 15:50:58;;;;;;;;;;;;;;;;;;5013370;28;19905;-50
2022/03/24 15:53:24;;;;;;;;;;;;;;;;;;5013099;28;19905;-47
2022/03/24 15:55:50;;;;;;;;;;;;;;;;;;5013320;28;19905;-48
2022/03/24 15:58:16;;;;;;;;;;;;;;;;;;5013163;28;20000;-48
2022/03/24 16:00:42;;;;;;;;;;;;;;;;;;5012942;28;20051;-48
2022/03/24 16:03:08;;;;;;;;;;;;;;;;;;5012809;28;19925;-47
2022/03/24 16:05:34;;;;;;;;;;;;;;;;;;5012820;28;20348;-48
2022/03/24 16:08:00;;;;;;;;;;;;;;;;;;5013215;28;19909;-48
2022/03/24 16:10:26;;;;;;;;;;;;;;;;;;5013026;28;19905;-49
2022/03/24 16:12:51;;;;;;;;;;;;;;;;;;5013100;28;19932;-48
2022/03/24 16:15:17;;;;;;;;;;;;;;;;;;5013132;28;20015;-48
2022/03/24 16:17:43;;;;;;;;;;;;;;;;;;5013022;28;19906;-48
2022/03/24 16:20:09;;;;;;;;;;;;;;;;;;5013063;28;19905;-48
2022/03/24 16:22:35;;;;;;;;;;;;;;;;;;5012791;28;19905;-48
2022/03/24 16:25:01;;;;;;;;;;;;;;;;;;5012716;28;19972;-48
2022/03/24 16:27:27;;;;;;;;;;;;;;;;;;5013046;28;19905;-48
2022/03/24 16:29:53;;;;;;;;;;;;;;;;;;5012876;28;19905;-51
2022/03/24 16:32:19;;;;;;;;;;;;;;;;;;5012692;28;20009;-47
2022/03/24 16:34:45;;;;;;;;;;;;;;;;;;5012477;28;19905;-47
2022/03/24 16:37:11;;;;;;;;;;;;;;;;;;5012563;28;19948;-47
2022/03/24 16:39:37;;;;;;;;;;;;;;;;;;5012518;28;19920;-46